createdAt,value
2022-08-30T00:00:54.149Z,189.10
2022-08-30T00:01:54.125Z,191.30
2022-08-30T00:02:54.159Z,183.50
2022-08-30T00:03:54.226Z,185.40
2022-08-30T00:04:54.104Z,194.40
2022-08-30T00:05:54.098Z,190.80
2022-08-30T00:06:54.069Z,191.50
2022-08-30T00:07:54.053Z,195.10
2022-08-30T00:08:54.081Z,191.60
2022-08-30T00:09:54.020Z,191.40
2022-08-30T00:10:54.016Z,197.80
2022-08-30T00:11:54.018Z,207.80
2022-08-30T00:12:53.994Z,191.70
2022-08-30T00:13:54.031Z,192.80
2022-08-30T00:14:53.971Z,190.30
2022-08-30T00:15:53.992Z,184.90
2022-08-30T00:16:53.971Z,218.20
2022-08-30T00:17:53.946Z,190.20
2022-08-30T00:18:53.972Z,189.80
2022-08-30T00:19:53.929Z,209.20
2022-08-30T00:20:53.911Z,195.40
2022-08-30T00:21:53.898Z,198.50
2022-08-30T00:22:53.888Z,194.20
2022-08-30T00:23:54.034Z,195.70
2022-08-30T00:24:53.859Z,203.80
2022-08-30T00:25:53.861Z,211.20
2022-08-30T00:26:53.844Z,223.40
2022-08-30T00:27:53.833Z,197.30
2022-08-30T00:28:53.872Z,212.90
2022-08-30T00:29:53.846Z,198.40
2022-08-30T00:30:53.836Z,200.30
2022-08-30T00:31:53.791Z,206.50
2022-08-30T00:32:53.771Z,215.20
2022-08-30T00:33:53.809Z,209.10
2022-08-30T00:34:53.756Z,204.60
2022-08-30T00:35:53.736Z,202.10
2022-08-30T00:36:53.731Z,229.30
2022-08-30T00:37:53.711Z,230.30
2022-08-30T00:38:53.754Z,237.00
2022-08-30T00:39:53.686Z,240.20
2022-08-30T00:40:53.692Z,208.90
2022-08-30T00:41:53.670Z,231.70
2022-08-30T00:42:58.087Z,245.70
2022-08-30T00:43:54.680Z,249.90
2022-08-30T00:44:53.640Z,254.80
2022-08-30T00:45:53.698Z,231.70
2022-08-30T00:46:53.622Z,237.20
2022-08-30T00:47:53.608Z,237.20
2022-08-30T00:48:53.644Z,242.10
2022-08-30T00:49:53.582Z,231.90
2022-08-30T00:50:53.567Z,234.20
2022-08-30T00:51:53.557Z,232.90
2022-08-30T00:52:53.557Z,234.20
2022-08-30T00:53:53.575Z,215.30
2022-08-30T00:54:53.530Z,231.50
2022-08-30T00:55:53.522Z,228.20
2022-08-30T00:56:53.510Z,239.50
2022-08-30T00:57:53.487Z,216.50
2022-08-30T00:58:53.519Z,221.00
2022-08-30T00:59:53.484Z,196.20
2022-08-30T01:00:53.456Z,236.50
2022-08-30T01:01:53.516Z,247.20
2022-08-30T01:02:53.462Z,295.10
2022-08-30T01:03:53.466Z,255.40
2022-08-30T01:04:53.415Z,189.30
2022-08-30T01:05:53.408Z,200.60
2022-08-30T01:06:53.394Z,203.00
2022-08-30T01:07:53.381Z,201.20
2022-08-30T01:08:53.426Z,198.20
2022-08-30T01:09:53.358Z,231.40
2022-08-30T01:10:53.356Z,188.30
2022-08-30T01:11:53.329Z,173.70
2022-08-30T01:12:53.313Z,184.30
2022-08-30T01:13:53.346Z,190.00
2022-08-30T01:14:53.301Z,182.50
2022-08-30T01:15:53.506Z,190.00
2022-08-30T01:16:53.287Z,173.50
2022-08-30T01:17:53.275Z,159.20
2022-08-30T01:18:53.303Z,153.90
2022-08-30T01:19:53.248Z,152.40
2022-08-30T01:20:53.239Z,144.20
2022-08-30T01:21:53.217Z,151.90
2022-08-30T01:22:53.218Z,153.00
2022-08-30T01:23:53.236Z,140.40
2022-08-30T01:24:53.188Z,144.50
2022-08-30T01:25:53.176Z,148.90
2022-08-30T01:26:53.177Z,152.90
2022-08-30T01:27:53.165Z,153.90
2022-08-30T01:28:53.196Z,151.70
2022-08-30T01:29:53.137Z,155.40
2022-08-30T01:30:53.226Z,143.50
2022-08-30T01:31:53.117Z,158.30
2022-08-30T01:32:53.107Z,144.20
2022-08-30T01:33:53.139Z,161.20
2022-08-30T01:34:53.086Z,147.90
2022-08-30T01:35:53.071Z,155.00
2022-08-30T01:36:53.056Z,147.10
2022-08-30T01:37:53.042Z,181.70
2022-08-30T01:38:53.081Z,147.80
2022-08-30T01:39:53.022Z,192.70
2022-08-30T01:40:53.026Z,159.20
2022-08-30T01:41:53.000Z,150.10
2022-08-30T01:42:52.990Z,153.20
2022-08-30T01:43:53.017Z,147.80
2022-08-30T01:44:52.956Z,175.20
2022-08-30T01:45:52.966Z,144.70
2022-08-30T01:46:52.946Z,182.70
2022-08-30T01:47:52.931Z,156.60
2022-08-30T01:48:54.224Z,155.30
2022-08-30T01:49:52.910Z,172.60
2022-08-30T01:50:52.911Z,181.60
2022-08-30T01:51:52.892Z,179.30
2022-08-30T01:52:53.891Z,174.60
2022-08-30T01:53:52.912Z,164.40
2022-08-30T01:54:52.859Z,192.30
2022-08-30T01:55:52.841Z,190.90
2022-08-30T01:56:52.839Z,190.80
2022-08-30T01:57:52.813Z,178.40
2022-08-30T01:58:52.856Z,163.70
2022-08-30T01:59:52.793Z,148.80
2022-08-30T02:00:52.806Z,160.90
2022-08-30T02:01:52.886Z,151.10
2022-08-30T02:02:52.773Z,148.40
2022-08-30T02:03:52.845Z,149.60
2022-08-30T02:04:52.751Z,165.50
2022-08-30T02:05:52.724Z,162.70
2022-08-30T02:06:52.713Z,158.40
2022-08-30T02:07:52.702Z,167.80
2022-08-30T02:08:52.739Z,164.70
2022-08-30T02:09:52.681Z,167.10
2022-08-30T02:10:52.668Z,157.90
2022-08-30T02:11:52.662Z,160.20
2022-08-30T02:12:52.653Z,163.90
2022-08-30T02:13:52.673Z,166.50
2022-08-30T02:14:52.630Z,168.80
2022-08-30T02:15:52.644Z,170.20
2022-08-30T02:16:52.630Z,175.50
2022-08-30T02:17:52.581Z,172.90
2022-08-30T02:18:52.622Z,171.60
2022-08-30T02:19:52.567Z,167.80
2022-08-30T02:20:52.562Z,162.60
2022-08-30T02:21:52.547Z,157.30
2022-08-30T02:22:52.531Z,158.20
2022-08-30T02:23:52.573Z,152.60
2022-08-30T02:24:52.533Z,157.20
2022-08-30T02:25:52.534Z,153.20
2022-08-30T02:26:52.492Z,153.70
2022-08-30T02:27:52.488Z,154.30
2022-08-30T02:28:52.499Z,161.10
2022-08-30T02:29:52.446Z,171.00
2022-08-30T02:30:52.501Z,184.50
2022-08-30T02:31:52.440Z,183.10
2022-08-30T02:32:52.422Z,191.30
2022-08-30T02:33:52.450Z,185.20
2022-08-30T02:34:52.418Z,189.90
2022-08-30T02:35:52.388Z,184.20
2022-08-30T02:36:52.385Z,174.00
2022-08-30T02:37:52.377Z,177.20
2022-08-30T02:38:52.400Z,178.50
2022-08-30T02:39:52.345Z,166.60
2022-08-30T02:40:52.337Z,165.60
2022-08-30T02:41:52.316Z,160.00
2022-08-30T02:42:52.317Z,156.20
2022-08-30T02:43:52.345Z,160.10
2022-08-30T02:44:52.287Z,175.20
2022-08-30T02:45:52.395Z,196.60
2022-08-30T02:46:52.267Z,198.30
2022-08-30T02:47:52.247Z,189.20
2022-08-30T02:48:52.306Z,196.60
2022-08-30T02:49:52.216Z,190.50
2022-08-30T02:50:52.226Z,181.50
2022-08-30T02:51:52.210Z,189.70
2022-08-30T02:52:52.199Z,186.60
2022-08-30T02:53:52.211Z,189.60
2022-08-30T02:54:52.183Z,190.40
2022-08-30T02:55:52.157Z,193.70
2022-08-30T02:56:52.144Z,193.70
2022-08-30T02:57:52.137Z,191.30
2022-08-30T02:58:52.173Z,190.60
2022-08-30T02:59:52.118Z,193.80
2022-08-30T03:00:52.147Z,186.30
2022-08-30T03:01:52.100Z,191.70
2022-08-30T03:02:52.089Z,194.00
2022-08-30T03:03:52.150Z,201.60
2022-08-30T03:04:52.065Z,210.40
2022-08-30T03:05:52.059Z,232.50
2022-08-30T03:06:52.045Z,239.40
2022-08-30T03:07:52.029Z,236.60
2022-08-30T03:08:52.067Z,215.30
2022-08-30T03:09:51.997Z,200.50
2022-08-30T03:10:51.995Z,194.40
2022-08-30T03:11:51.976Z,188.90
2022-08-30T03:12:51.975Z,187.10
2022-08-30T03:13:52.001Z,187.90
2022-08-30T03:14:51.956Z,194.50
2022-08-30T03:15:51.932Z,185.40
2022-08-30T03:16:51.971Z,190.50
2022-08-30T03:17:51.905Z,186.20
2022-08-30T03:18:51.944Z,198.30
2022-08-30T03:19:51.879Z,175.90
2022-08-30T03:20:54.147Z,184.20
2022-08-30T03:21:51.862Z,192.00
2022-08-30T03:22:51.862Z,180.90
2022-08-30T03:23:51.885Z,188.90
2022-08-30T03:24:51.841Z,182.90
2022-08-30T03:25:51.813Z,184.70
2022-08-30T03:26:51.824Z,181.70
2022-08-30T03:27:51.810Z,186.00
2022-08-30T03:28:51.833Z,186.40
2022-08-30T03:29:51.786Z,205.60
2022-08-30T03:30:51.771Z,219.40
2022-08-30T03:31:53.223Z,234.50
2022-08-30T03:32:51.756Z,244.90
2022-08-30T03:33:51.783Z,256.60
2022-08-30T03:34:51.761Z,260.50
2022-08-30T03:35:51.718Z,268.20
2022-08-30T03:36:51.703Z,249.40
2022-08-30T03:37:56.385Z,235.00
2022-08-30T03:38:51.723Z,224.70
2022-08-30T03:39:51.663Z,225.80
2022-08-30T03:40:51.651Z,236.50
2022-08-30T03:41:51.860Z,264.20
2022-08-30T03:42:51.635Z,269.70
2022-08-30T03:43:51.612Z,293.60
2022-08-30T03:44:52.646Z,280.20
2022-08-30T03:45:51.646Z,283.30
2022-08-30T03:46:51.596Z,277.70
2022-08-30T03:47:51.570Z,265.90
2022-08-30T03:48:51.563Z,268.10
2022-08-30T03:49:51.589Z,278.50
2022-08-30T03:50:51.540Z,288.90
2022-08-30T03:51:51.513Z,294.00
2022-08-30T03:52:51.514Z,295.80
2022-08-30T03:53:51.490Z,306.60
2022-08-30T03:54:51.541Z,305.20
2022-08-30T03:55:51.483Z,293.00
2022-08-30T03:56:51.481Z,267.60
2022-08-30T03:57:51.453Z,246.40
2022-08-30T03:58:51.451Z,213.00
2022-08-30T03:59:51.479Z,203.00
2022-08-30T04:00:51.505Z,172.90
2022-08-30T04:01:51.437Z,164.40
2022-08-30T04:02:51.405Z,155.50
2022-08-30T04:03:51.429Z,154.80
2022-08-30T04:04:51.380Z,157.10
2022-08-30T04:05:51.359Z,159.00
2022-08-30T04:06:51.359Z,163.70
2022-08-30T04:07:51.349Z,166.90
2022-08-30T04:08:51.385Z,167.50
2022-08-30T04:09:51.330Z,168.40
2022-08-30T04:10:51.328Z,166.50
2022-08-30T04:11:51.300Z,171.40
2022-08-30T04:12:51.293Z,160.70
2022-08-30T04:13:51.339Z,173.60
2022-08-30T04:14:51.278Z,155.30
2022-08-30T04:15:51.259Z,162.00
2022-08-30T04:16:51.321Z,160.00
2022-08-30T04:17:51.232Z,161.50
2022-08-30T04:18:51.280Z,154.50
2022-08-30T04:19:51.239Z,156.30
2022-08-30T04:20:51.209Z,152.10
2022-08-30T04:21:51.193Z,153.20
2022-08-30T04:22:51.289Z,156.00
2022-08-30T04:23:51.203Z,161.10
2022-08-30T04:24:51.157Z,164.40
2022-08-30T04:25:51.136Z,161.00
2022-08-30T04:26:51.131Z,172.50
2022-08-30T04:27:51.124Z,165.60
2022-08-30T04:28:51.169Z,162.20
2022-08-30T04:29:51.099Z,172.40
2022-08-30T04:30:51.103Z,166.70
2022-08-30T04:31:51.150Z,166.70
2022-08-30T04:32:53.514Z,176.30
2022-08-30T04:33:51.100Z,205.90
2022-08-30T04:34:51.042Z,205.10
2022-08-30T04:35:51.034Z,221.30
2022-08-30T04:36:51.029Z,220.40
2022-08-30T04:37:51.011Z,230.90
2022-08-30T04:38:51.040Z,243.20
2022-08-30T04:39:50.991Z,230.20
2022-08-30T04:40:50.978Z,247.70
2022-08-30T04:41:50.965Z,259.80
2022-08-30T04:42:50.958Z,258.10
2022-08-30T04:43:50.987Z,267.70
2022-08-30T04:44:50.938Z,282.00
2022-08-30T04:45:50.975Z,278.70
2022-08-30T04:46:50.901Z,273.50
2022-08-30T04:47:50.896Z,263.00
2022-08-30T04:48:50.928Z,275.60
2022-08-30T04:49:50.885Z,248.90
2022-08-30T04:50:50.866Z,245.30
2022-08-30T04:51:50.850Z,233.30
2022-08-30T04:52:50.837Z,329.10
2022-08-30T04:53:50.868Z,246.40
2022-08-30T04:54:50.812Z,219.30
2022-08-30T04:55:50.802Z,345.80
2022-08-30T04:56:50.780Z,271.50
2022-08-30T04:57:50.810Z,285.40
2022-08-30T04:58:50.849Z,323.60
2022-08-30T04:59:50.790Z,193.70
2022-08-30T05:00:50.798Z,209.00
2022-08-30T05:01:50.787Z,377.40
2022-08-30T05:02:50.783Z,230.70
2022-08-30T05:03:50.787Z,218.50
2022-08-30T05:04:50.720Z,209.70
2022-08-30T05:05:50.743Z,223.10
2022-08-30T05:06:50.704Z,222.60
2022-08-30T05:07:50.681Z,212.10
2022-08-30T05:08:50.699Z,213.00
2022-08-30T05:09:50.663Z,209.60
2022-08-30T05:10:50.642Z,215.80
2022-08-30T05:11:50.651Z,228.80
2022-08-30T05:12:50.622Z,216.70
2022-08-30T05:13:50.664Z,280.60
2022-08-30T05:14:50.595Z,326.10
2022-08-30T05:15:50.692Z,317.70
2022-08-30T05:16:50.576Z,246.20
2022-08-30T05:17:50.571Z,332.20
2022-08-30T05:18:50.597Z,351.60
2022-08-30T05:19:50.565Z,355.10
2022-08-30T05:20:50.552Z,257.30
2022-08-30T05:21:50.527Z,204.90
2022-08-30T05:22:53.511Z,172.20
2022-08-30T05:23:50.550Z,180.40
2022-08-30T05:24:50.475Z,176.70
2022-08-30T05:25:50.469Z,187.90
2022-08-30T05:26:50.454Z,153.30
2022-08-30T05:27:50.480Z,81.60
2022-08-30T05:28:50.454Z,59.70
2022-08-30T05:29:50.505Z,61.70
2022-08-30T05:30:50.424Z,71.30
2022-08-30T05:31:50.459Z,101.00
2022-08-30T05:32:50.409Z,59.60
2022-08-30T05:33:50.392Z,71.40
2022-08-30T05:34:51.343Z,67.40
2022-08-30T05:35:50.368Z,60.50
2022-08-30T05:36:50.346Z,136.60
2022-08-30T05:37:50.344Z,41.80
2022-08-30T05:38:50.320Z,39.30
2022-08-30T05:39:51.312Z,38.80
2022-08-30T05:40:50.295Z,35.30
2022-08-30T05:41:50.469Z,63.40
2022-08-30T05:42:50.280Z,25.90
2022-08-30T05:43:50.294Z,93.50
2022-08-30T05:44:50.363Z,26.60
2022-08-30T05:45:50.256Z,138.90
2022-08-30T05:46:50.246Z,30.50
2022-08-30T05:47:50.219Z,166.80
2022-08-30T05:48:50.234Z,44.40
2022-08-30T05:49:50.279Z,29.00
2022-08-30T05:50:50.231Z,33.80
2022-08-30T05:51:50.195Z,26.10
2022-08-30T05:52:50.158Z,33.40
2022-08-30T05:53:50.141Z,126.00
2022-08-30T05:54:50.181Z,29.90
2022-08-30T05:55:50.129Z,156.40
2022-08-30T05:56:50.126Z,32.20
2022-08-30T05:57:50.132Z,39.00
2022-08-30T05:58:50.086Z,123.40
2022-08-30T05:59:50.138Z,59.90
2022-08-30T06:00:50.078Z,29.50
2022-08-30T06:01:50.137Z,50.20
2022-08-30T06:02:50.098Z,118.60
2022-08-30T06:03:50.055Z,30.90
2022-08-30T06:04:50.087Z,141.10
2022-08-30T06:05:50.034Z,42.50
2022-08-30T06:06:49.999Z,27.00
2022-08-30T06:07:50.027Z,29.10
2022-08-30T06:08:49.998Z,28.30
2022-08-30T06:09:50.023Z,30.80
2022-08-30T06:10:49.956Z,83.60
2022-08-30T06:11:49.970Z,29.30
2022-08-30T06:12:49.929Z,45.40
2022-08-30T06:13:49.943Z,31.90
2022-08-30T06:14:49.977Z,130.90
2022-08-30T06:15:50.000Z,44.10
2022-08-30T06:16:49.901Z,65.80
2022-08-30T06:17:49.878Z,57.30
2022-08-30T06:18:49.886Z,131.40
2022-08-30T06:19:49.923Z,59.80
2022-08-30T06:20:50.837Z,56.10
2022-08-30T06:21:49.847Z,73.50
2022-08-30T06:22:49.854Z,59.40
2022-08-30T06:23:49.823Z,112.90
2022-08-30T06:24:58.029Z,106.20
2022-08-30T06:25:50.782Z,90.90
2022-08-30T06:26:49.770Z,66.80
2022-08-30T06:27:54.465Z,139.20
2022-08-30T06:28:50.772Z,127.90
2022-08-30T06:29:49.789Z,79.70
2022-08-30T06:30:49.746Z,76.50
2022-08-30T06:31:49.754Z,134.80
2022-08-30T06:32:49.716Z,68.20
2022-08-30T06:33:49.710Z,67.30
2022-08-30T06:34:49.733Z,62.70
2022-08-30T06:35:58.207Z,101.30
2022-08-30T06:36:50.673Z,101.50
2022-08-30T06:37:49.689Z,56.80
2022-08-30T06:38:49.647Z,145.90
2022-08-30T06:39:49.680Z,54.20
2022-08-30T06:40:49.622Z,41.20
2022-08-30T06:41:49.630Z,35.60
2022-08-30T06:42:49.596Z,171.20
2022-08-30T06:43:49.612Z,147.70
2022-08-30T06:44:49.637Z,42.60
2022-08-30T06:45:49.569Z,52.80
2022-08-30T06:46:49.745Z,35.60
2022-08-30T06:47:49.606Z,96.90
2022-08-30T06:48:49.544Z,65.50
2022-08-30T06:49:49.569Z,93.20
2022-08-30T06:50:49.524Z,83.30
2022-08-30T06:51:49.513Z,97.70
2022-08-30T06:52:49.482Z,60.40
2022-08-30T06:53:49.462Z,38.50
2022-08-30T06:54:49.501Z,40.10
2022-08-30T06:55:49.474Z,43.80
2022-08-30T06:56:58.307Z,58.70
2022-08-30T06:57:50.451Z,45.10
2022-08-30T06:58:49.433Z,40.50
2022-08-30T06:59:49.857Z,51.60
2022-08-30T07:00:49.396Z,51.20
2022-08-30T07:01:49.425Z,53.00
2022-08-30T07:02:49.475Z,54.50
2022-08-30T07:03:49.384Z,52.60
2022-08-30T07:04:49.402Z,46.70
2022-08-30T07:05:49.353Z,43.10
2022-08-30T07:06:49.315Z,38.10
2022-08-30T07:07:49.323Z,37.90
2022-08-30T07:08:49.320Z,38.60
2022-08-30T07:09:50.354Z,40.20
2022-08-30T07:10:49.276Z,36.90
2022-08-30T07:11:49.317Z,37.60
2022-08-30T07:12:49.266Z,34.50
2022-08-30T07:13:49.258Z,37.00
2022-08-30T07:14:49.296Z,33.60
2022-08-30T07:15:49.297Z,33.60
2022-08-30T07:16:51.059Z,32.70
2022-08-30T07:17:49.210Z,30.80
2022-08-30T07:18:49.198Z,31.10
2022-08-30T07:19:49.253Z,31.80
2022-08-30T07:20:49.192Z,31.70
2022-08-30T07:21:49.346Z,39.50
2022-08-30T07:22:49.137Z,42.60
2022-08-30T07:23:53.096Z,37.40
2022-08-30T07:24:49.157Z,32.90
2022-08-30T07:25:49.131Z,29.30
2022-08-30T07:26:49.129Z,30.50
2022-08-30T07:27:49.098Z,32.20
2022-08-30T07:28:49.076Z,30.20
2022-08-30T07:29:50.132Z,26.60
2022-08-30T07:30:49.062Z,24.60
2022-08-30T07:31:49.075Z,25.20
2022-08-30T07:32:49.028Z,24.20
2022-08-30T07:33:49.038Z,27.10
2022-08-30T07:34:49.071Z,28.10
2022-08-30T07:35:49.015Z,31.40
2022-08-30T07:36:49.012Z,24.30
2022-08-30T07:37:48.984Z,21.00
2022-08-30T07:38:48.979Z,18.20
2022-08-30T07:39:49.032Z,16.70
2022-08-30T07:40:48.978Z,19.00
2022-08-30T07:41:48.944Z,19.40
2022-08-30T07:42:48.923Z,20.70
2022-08-30T07:43:48.964Z,20.70
2022-08-30T07:44:48.956Z,23.40
2022-08-30T07:45:48.905Z,24.80
2022-08-30T07:46:48.940Z,22.90
2022-08-30T07:47:48.876Z,22.20
2022-08-30T07:48:48.860Z,18.70
2022-08-30T07:49:48.900Z,17.40
2022-08-30T07:50:50.165Z,16.10
2022-08-30T07:51:48.816Z,16.00
2022-08-30T07:52:48.793Z,14.80
2022-08-30T07:53:48.797Z,15.40
2022-08-30T07:54:52.770Z,14.80
2022-08-30T07:55:48.790Z,13.50
2022-08-30T07:56:48.775Z,15.90
2022-08-30T07:57:48.791Z,17.70
2022-08-30T07:58:48.831Z,18.30
2022-08-30T07:59:48.786Z,19.80
2022-08-30T08:00:48.727Z,21.40
2022-08-30T08:01:48.891Z,23.20
2022-08-30T08:02:48.734Z,21.60
2022-08-30T08:03:48.708Z,21.60
2022-08-30T08:04:48.729Z,23.80
2022-08-30T08:05:48.688Z,23.70
2022-08-30T08:06:48.678Z,25.90
2022-08-30T08:07:48.697Z,29.10
2022-08-30T08:08:48.657Z,30.40
2022-08-30T08:09:48.675Z,31.10
2022-08-30T08:10:48.621Z,31.20
2022-08-30T08:11:48.618Z,34.90
2022-08-30T08:12:48.609Z,30.50
2022-08-30T08:13:53.226Z,21.30
2022-08-30T08:14:49.618Z,18.20
2022-08-30T08:15:48.607Z,14.50
2022-08-30T08:16:48.536Z,13.20
2022-08-30T08:17:48.538Z,12.40
2022-08-30T08:18:48.521Z,11.90
2022-08-30T08:19:48.567Z,10.70
2022-08-30T08:20:48.509Z,9.80
2022-08-30T08:21:52.763Z,9.40
2022-08-30T08:22:49.472Z,9.30
2022-08-30T08:23:48.452Z,9.40
2022-08-30T08:24:48.481Z,10.30
2022-08-30T08:25:48.461Z,9.60
2022-08-30T08:26:48.462Z,9.20
2022-08-30T08:27:48.440Z,9.20
2022-08-30T08:28:48.408Z,9.40
2022-08-30T08:29:48.479Z,9.40
2022-08-30T08:30:48.564Z,11.60
2022-08-30T08:31:48.417Z,13.00
2022-08-30T08:32:48.379Z,16.00
2022-08-30T08:33:48.460Z,15.30
2022-08-30T08:34:48.386Z,14.70
2022-08-30T08:35:48.345Z,12.80
2022-08-30T08:36:48.344Z,11.00
2022-08-30T08:37:48.311Z,13.10
2022-08-30T08:38:48.325Z,9.50
2022-08-30T08:39:48.342Z,9.00
2022-08-30T08:40:48.273Z,9.40
2022-08-30T08:41:48.279Z,10.10
2022-08-30T08:42:48.260Z,11.10
2022-08-30T08:43:48.252Z,12.90
2022-08-30T08:45:48.232Z,10.00
2022-08-30T08:46:48.211Z,11.80
2022-08-30T08:47:48.206Z,12.70
2022-08-30T08:48:59.581Z,8.40
2022-08-30T08:49:49.232Z,8.90
2022-08-30T08:50:48.195Z,8.90
2022-08-30T08:51:48.212Z,7.70
2022-08-30T08:52:48.147Z,9.60
2022-08-30T08:53:48.129Z,9.40
2022-08-30T08:54:48.154Z,8.10
2022-08-30T08:55:48.246Z,7.90
2022-08-30T08:56:48.129Z,10.80
2022-08-30T08:57:48.102Z,11.40
2022-08-30T08:58:48.084Z,11.80
2022-08-30T08:59:48.129Z,11.40
2022-08-30T09:00:48.050Z,11.80
2022-08-30T09:01:48.147Z,11.90
2022-08-30T09:02:48.038Z,11.20
2022-08-30T09:03:48.033Z,10.70
2022-08-30T09:04:48.238Z,12.20
2022-08-30T09:05:48.030Z,9.10
2022-08-30T09:06:48.025Z,10.20
2022-08-30T09:07:47.979Z,10.10
2022-08-30T09:08:47.972Z,9.60
2022-08-30T09:09:48.008Z,8.80
2022-08-30T09:10:50.794Z,9.50
2022-08-30T09:11:47.945Z,9.20
2022-08-30T09:12:47.941Z,8.60
2022-08-30T09:13:47.931Z,7.80
2022-08-30T09:14:47.953Z,7.80
2022-08-30T09:15:51.095Z,8.10
2022-08-30T09:16:48.883Z,7.70
2022-08-30T09:17:47.881Z,8.50
2022-08-30T09:18:51.246Z,9.30
2022-08-30T09:19:48.904Z,9.00
2022-08-30T09:20:47.836Z,8.00
2022-08-30T09:21:47.849Z,8.10
2022-08-30T09:22:48.829Z,8.00
2022-08-30T09:23:47.793Z,8.70
2022-08-30T09:24:47.825Z,8.60
2022-08-30T09:25:47.765Z,8.10
2022-08-30T09:26:47.789Z,7.60
2022-08-30T09:27:47.769Z,8.10
2022-08-30T09:28:49.244Z,8.50
2022-08-30T09:29:47.795Z,9.40
2022-08-30T09:30:47.799Z,8.10
2022-08-30T09:31:47.725Z,7.80
2022-08-30T09:32:47.733Z,7.80
2022-08-30T09:33:47.720Z,7.90
2022-08-30T09:34:47.711Z,7.40
2022-08-30T09:35:47.734Z,8.00
2022-08-30T09:36:47.689Z,8.20
2022-08-30T09:37:47.703Z,8.50
2022-08-30T09:38:47.666Z,8.70
2022-08-30T09:39:47.658Z,8.20
2022-08-30T09:40:47.687Z,8.90
2022-08-30T09:41:47.632Z,9.90
2022-08-30T09:42:47.611Z,8.90
2022-08-30T09:43:47.601Z,8.00
2022-08-30T09:44:47.587Z,7.70
2022-08-30T09:45:47.652Z,8.10
2022-08-30T09:46:47.576Z,8.80
2022-08-30T09:47:47.585Z,10.10
2022-08-30T09:48:47.543Z,10.20
2022-08-30T09:49:47.537Z,9.40
2022-08-30T09:50:47.582Z,8.80
2022-08-30T09:51:47.486Z,8.80
2022-08-30T09:52:50.877Z,8.70
2022-08-30T09:54:07.341Z,8.30
2022-08-30T09:54:48.461Z,9.00
2022-08-30T09:55:47.514Z,10.40
2022-08-30T09:56:47.477Z,9.30
2022-08-30T09:57:47.434Z,8.40
2022-08-30T09:58:47.439Z,8.00
2022-08-30T09:59:47.407Z,7.90
2022-08-30T10:00:47.460Z,7.60
2022-08-30T10:01:47.403Z,8.20
2022-08-30T10:02:47.422Z,8.30
2022-08-30T10:03:47.367Z,8.10
2022-08-30T10:04:47.360Z,8.30
2022-08-30T10:05:47.388Z,7.70
2022-08-30T10:06:47.352Z,8.50
2022-08-30T10:07:47.335Z,8.60
2022-08-30T10:08:47.316Z,9.30
2022-08-30T10:09:47.316Z,10.00
2022-08-30T10:10:47.363Z,9.00
2022-08-30T10:11:47.303Z,8.90
2022-08-30T10:12:47.287Z,8.70
2022-08-30T10:13:47.281Z,8.70
2022-08-30T10:14:47.266Z,7.90
2022-08-30T10:15:47.294Z,8.90
2022-08-30T10:16:47.237Z,10.10
2022-08-30T10:17:47.208Z,9.70
2022-08-30T10:18:47.218Z,8.80
2022-08-30T10:19:47.194Z,8.20
2022-08-30T10:20:47.231Z,7.70
2022-08-30T10:21:47.164Z,7.60
2022-08-30T10:22:47.150Z,7.80
2022-08-30T10:23:47.168Z,8.00
2022-08-30T10:24:47.196Z,7.90
2022-08-30T10:25:47.134Z,8.20
2022-08-30T10:26:47.121Z,8.50
2022-08-30T10:27:47.120Z,8.20
2022-08-30T10:28:47.175Z,7.90
2022-08-30T10:29:47.127Z,8.30
2022-08-30T10:30:47.084Z,8.40
2022-08-30T10:31:47.074Z,8.10
2022-08-30T10:32:47.068Z,7.80
2022-08-30T10:33:47.069Z,8.20
2022-08-30T10:34:47.100Z,8.70
2022-08-30T10:35:47.024Z,9.50
2022-08-30T10:36:47.008Z,8.70
2022-08-30T10:37:46.995Z,8.50
2022-08-30T10:38:47.005Z,8.90
2022-08-30T10:39:47.047Z,10.00
2022-08-30T10:40:47.021Z,11.10
2022-08-30T10:41:46.956Z,10.00
2022-08-30T10:42:46.983Z,9.70
2022-08-30T10:43:46.941Z,9.60
2022-08-30T10:44:46.926Z,9.20
2022-08-30T10:45:46.956Z,8.90
2022-08-30T10:46:46.901Z,9.20
2022-08-30T10:47:46.881Z,8.80
2022-08-30T10:48:47.442Z,8.10
2022-08-30T10:49:46.872Z,8.80
2022-08-30T10:50:46.915Z,9.70
2022-08-30T10:51:46.840Z,8.20
2022-08-30T10:52:46.824Z,8.50
2022-08-30T10:53:46.815Z,8.60
2022-08-30T10:54:46.831Z,9.30
2022-08-30T10:55:50.140Z,8.70
2022-08-30T10:56:46.799Z,7.70
2022-08-30T10:57:46.787Z,8.20
2022-08-30T10:58:46.782Z,8.30
2022-08-30T10:59:46.759Z,8.40
2022-08-30T11:00:46.808Z,8.60
2022-08-30T11:01:47.030Z,7.50
2022-08-30T11:02:46.753Z,7.50
2022-08-30T11:03:46.713Z,7.90
2022-08-30T11:04:46.711Z,8.10
2022-08-30T11:05:46.745Z,8.20
2022-08-30T11:06:46.709Z,8.10
2022-08-30T11:07:46.674Z,8.30
2022-08-30T11:08:46.674Z,8.40
2022-08-30T11:09:46.679Z,8.30
2022-08-30T11:10:47.835Z,8.00
2022-08-30T11:11:46.630Z,8.40
2022-08-30T11:12:46.617Z,7.80
2022-08-30T11:13:46.636Z,8.20
2022-08-30T11:14:46.608Z,8.40
2022-08-30T11:15:46.636Z,8.50
2022-08-30T11:16:46.588Z,8.10
2022-08-30T11:17:46.580Z,9.10
2022-08-30T11:18:51.004Z,9.70
2022-08-30T11:19:47.593Z,10.20
2022-08-30T11:20:46.599Z,10.00
2022-08-30T11:21:46.521Z,10.40
2022-08-30T11:22:46.513Z,10.20
2022-08-30T11:23:46.493Z,10.20
2022-08-30T11:24:46.554Z,9.60
2022-08-30T11:25:46.510Z,10.10
2022-08-30T11:26:47.480Z,10.70
2022-08-30T11:27:46.480Z,10.70
2022-08-30T11:28:46.467Z,10.80
2022-08-30T11:29:46.491Z,10.40
2022-08-30T11:30:46.457Z,9.70
2022-08-30T11:31:47.486Z,9.50
2022-08-30T11:32:46.415Z,9.20
2022-08-30T11:33:46.455Z,9.00
2022-08-30T11:34:46.402Z,8.30
2022-08-30T11:35:48.666Z,8.40
2022-08-30T11:36:46.403Z,8.80
2022-08-30T11:37:46.353Z,8.30
2022-08-30T11:38:46.359Z,8.20
2022-08-30T11:39:46.346Z,8.70
2022-08-30T11:40:46.379Z,8.70
2022-08-30T11:41:47.724Z,8.40
2022-08-30T11:42:46.346Z,9.00
2022-08-30T11:43:46.301Z,9.50
2022-08-30T11:44:46.315Z,9.60
2022-08-30T11:45:46.395Z,9.60
2022-08-30T11:46:46.291Z,9.70
2022-08-30T11:47:46.262Z,9.70
2022-08-30T11:48:53.631Z,9.70
2022-08-30T11:49:47.243Z,9.80
2022-08-30T11:50:48.394Z,9.80
2022-08-30T11:51:50.855Z,9.60
2022-08-30T11:52:48.763Z,9.80
2022-08-30T11:53:46.213Z,9.80
2022-08-30T11:54:47.929Z,10.60
2022-08-30T11:55:47.199Z,10.30
2022-08-30T11:56:46.204Z,10.80
2022-08-30T11:57:46.152Z,10.70
2022-08-30T11:58:46.150Z,11.10
2022-08-30T11:59:46.142Z,10.90
2022-08-30T12:00:51.291Z,11.10
2022-08-30T12:01:51.611Z,11.60
2022-08-30T12:02:47.220Z,11.70
2022-08-30T12:03:46.247Z,11.60
2022-08-30T12:04:46.087Z,11.40
2022-08-30T12:05:46.133Z,11.00
2022-08-30T12:06:46.061Z,11.00
2022-08-30T12:07:46.054Z,11.00
2022-08-30T12:08:47.323Z,10.90
2022-08-30T12:09:46.037Z,11.90
2022-08-30T12:10:46.076Z,11.80
2022-08-30T12:11:46.035Z,10.40
2022-08-30T12:12:46.002Z,9.30
2022-08-30T12:13:46.002Z,9.40
2022-08-30T12:14:45.980Z,9.50
2022-08-30T12:15:46.017Z,10.00
2022-08-30T12:16:46.017Z,9.90
2022-08-30T12:17:45.954Z,9.60
2022-08-30T12:18:45.938Z,9.50
2022-08-30T12:19:49.505Z,10.10
2022-08-30T12:20:45.950Z,10.00
2022-08-30T12:21:45.901Z,10.10
2022-08-30T12:22:45.874Z,10.30
2022-08-30T12:23:45.867Z,10.70
2022-08-30T12:24:45.879Z,10.30
2022-08-30T12:25:45.935Z,10.50
2022-08-30T12:26:45.886Z,10.30
2022-08-30T12:27:45.843Z,10.10
2022-08-30T12:28:45.837Z,10.50
2022-08-30T12:29:45.813Z,10.20
2022-08-30T12:30:46.471Z,10.40
2022-08-30T12:31:45.817Z,10.00
2022-08-30T12:32:45.810Z,10.20
2022-08-30T12:33:45.763Z,9.90
2022-08-30T12:34:45.781Z,9.70
2022-08-30T12:35:45.807Z,9.90
2022-08-30T12:36:45.753Z,9.80
2022-08-30T12:37:45.763Z,9.90
2022-08-30T12:38:45.738Z,10.00
2022-08-30T12:39:45.744Z,9.90
2022-08-30T12:40:46.829Z,10.50
2022-08-30T12:41:45.708Z,10.50
2022-08-30T12:42:45.686Z,10.40
2022-08-30T12:43:45.695Z,10.60
2022-08-30T12:44:45.669Z,10.90
2022-08-30T12:45:45.738Z,11.00
2022-08-30T12:46:46.668Z,11.20
2022-08-30T12:47:45.632Z,10.60
2022-08-30T12:48:45.612Z,11.00